Terminal Aerodrome Forecast
Issued by NWS Tampa Bay Area, FL

Home | Current Version | Previous Version | Text Only | Print | Product List | Glossary On
Versions: 1 2 3 4 5 6 7 8 9 10 11 12 13 14 15 16 17 18 19 20 21 22 23 24 25 26 27 28 29 30
000
FTUS42 KTBW 072333
TAFTPA
TAF
KTPA 072333Z 0800/0824 13005KT P6SM FEW060 OVC200
     FM080300 VRB03KT P6SM SCT150 BKN250
     FM080600 VRB03KT P6SM SCT250
     FM081400 16005KT P6SM FEW020 SCT250
     FM081700 21007KT P6SM VCTS SCT035CB SCT250
     FM082000 24007KT P6SM VCTS SCT040CB SCT100 BKN250=

USA.gov is the U.S. government's official web portal to all federal, state and local government web resources and services.